Time;durP1;ratioP1;P1;durP2;ratioP2;P2;SDS_P1;SDS_P2;PMS_P1;PMS_P2;Temp;Humidity;BMP_temperature;BMP_pressure;BME280_temperature;BME280_humidity;BME280_pressure;Samples;Min_cycle;Max_cycle;Signal;HPM_P1;HPM_P2
2022/06/26 00:00:38;;;;;;;9.55;5.30;;;20.00;86.30;;;;;;5049725;28;20120;-69
2022/06/26 00:03:03;;;;;;;9.38;5.50;;;20.00;86.30;;;;;;5049346;28;20037;-69
2022/06/26 00:05:29;;;;;;;11.10;6.30;;;20.00;86.30;;;;;;5049297;28;20033;-69
2022/06/26 00:07:54;;;;;;;9.88;5.68;;;20.00;86.30;;;;;;5050457;28;20041;-69
2022/06/26 00:10:20;;;;;;;7.25;5.60;;;19.90;86.50;;;;;;5052270;28;20037;-69
2022/06/26 00:12:45;;;;;;;8.40;5.75;;;19.90;86.70;;;;;;5052954;28;20434;-69
2022/06/26 00:15:11;;;;;;;8.52;6.13;;;19.90;86.50;;;;;;5055976;28;20475;-69
2022/06/26 00:17:37;;;;;;;9.35;5.72;;;20.00;86.50;;;;;;5050880;28;20062;-69
2022/06/26 00:20:03;;;;;;;8.38;6.25;;;20.00;86.70;;;;;;5050216;28;20049;-69
2022/06/26 00:22:28;;;;;;;8.05;5.80;;;19.90;87.00;;;;;;5053280;28;20442;-69
2022/06/26 00:24:54;;;;;;;7.63;5.57;;;19.90;86.70;;;;;;5049627;28;20030;-69
2022/06/26 00:27:19;;;;;;;6.70;5.72;;;19.90;86.90;;;;;;5052177;28;20456;-69
2022/06/26 00:29:45;;;;;;;7.70;5.80;;;19.80;86.70;;;;;;5050073;28;20104;-69
2022/06/26 00:32:11;;;;;;;8.77;5.90;;;19.80;86.70;;;;;;5053870;28;20465;-69
2022/06/26 00:34:36;;;;;;;6.85;5.65;;;19.80;87.00;;;;;;5052768;28;20142;-69
2022/06/26 00:37:02;;;;;;;7.03;5.75;;;19.80;87.20;;;;;;5053043;28;20329;-69
2022/06/26 00:39:28;;;;;;;9.07;5.72;;;19.70;87.20;;;;;;5052817;28;20032;-69
2022/06/26 00:41:53;;;;;;;10.40;6.95;;;19.70;87.30;;;;;;5051325;28;20037;-69
2022/06/26 00:44:24;;;;;;;11.25;6.13;;;19.70;87.60;;;;;;5051004;28;20029;-69
2022/06/26 00:46:50;;;;;;;10.20;6.25;;;19.70;87.80;;;;;;5053232;28;20084;-69
2022/06/26 00:49:16;;;;;;;6.65;5.55;;;19.60;87.70;;;;;;5050033;28;20029;-69
2022/06/26 00:51:49;;;;;;;11.68;6.80;;;19.50;87.90;;;;;;5049987;28;20032;-69
2022/06/26 00:54:15;;;;;;;8.18;5.93;;;19.50;88.20;;;;;;5052819;28;20029;-69
2022/06/26 00:56:41;;;;;;;9.32;5.95;;;19.50;88.20;;;;;;5049764;28;20043;-69
2022/06/26 00:59:06;;;;;;;7.45;6.53;;;19.50;88.50;;;;;;5049994;28;20021;-69
2022/06/26 01:01:34;;;;;;;9.80;6.70;;;19.50;88.50;;;;;;5052709;28;20033;-69
2022/06/26 01:04:00;;;;;;;10.13;6.57;;;19.50;88.40;;;;;;5052381;28;20055;-69
2022/06/26 01:06:25;;;;;;;8.32;6.38;;;19.50;88.30;;;;;;5052799;28;20020;-69
2022/06/26 01:08:51;;;;;;;7.82;6.22;;;19.30;88.50;;;;;;5052715;28;20110;-69
2022/06/26 01:11:17;;;;;;;8.88;6.82;;;19.30;88.80;;;;;;5050631;28;20102;-69
2022/06/26 01:13:45;;;;;;;9.38;7.55;;;19.20;88.80;;;;;;5051015;28;20460;-69
2022/06/26 01:16:12;;;;;;;8.98;7.65;;;19.30;89.20;;;;;;5044695;28;20421;-69
2022/06/26 01:18:37;;;;;;;9.43;7.22;;;19.30;89.30;;;;;;5051767;28;20535;-69
2022/06/26 01:21:03;;;;;;;9.82;7.65;;;19.30;89.40;;;;;;5048862;28;20040;-69
2022/06/26 01:23:28;;;;;;;9.65;7.18;;;19.30;89.30;;;;;;5052360;28;20491;-69
2022/06/26 01:25:54;;;;;;;8.30;6.93;;;19.30;89.20;;;;;;5038080;28;20052;-69
2022/06/26 01:28:19;;;;;;;9.85;7.05;;;19.20;89.40;;;;;;5050104;28;20069;-69
2022/06/26 01:30:46;;;;;;;8.60;7.50;;;19.20;89.50;;;;;;5051909;28;20051;-69
2022/06/26 01:33:11;;;;;;;12.25;8.20;;;19.20;89.60;;;;;;5051886;28;20112;-69
2022/06/26 01:35:37;;;;;;;11.35;7.97;;;19.20;89.70;;;;;;5051998;28;20493;-69
2022/06/26 01:38:13;;;;;;;9.65;7.32;;;19.20;89.80;;;;;;5052124;28;20033;-69
2022/06/26 01:40:40;;;;;;;10.20;7.55;;;19.20;89.90;;;;;;5050151;28;20055;-69
2022/06/26 01:43:05;;;;;;;9.52;7.90;;;19.30;90.00;;;;;;5049717;28;20451;-69
2022/06/26 01:45:31;;;;;;;10.10;7.57;;;19.20;89.70;;;;;;5051759;28;20056;-69
2022/06/26 01:47:56;;;;;;;9.27;7.18;;;19.20;89.70;;;;;;5051190;28;20041;-69
2022/06/26 01:50:22;;;;;;;9.93;7.68;;;19.20;89.90;;;;;;5050204;28;20506;-69
2022/06/26 01:52:47;;;;;;;9.07;7.28;;;19.10;89.90;;;;;;5050452;28;20067;-69
2022/06/26 01:55:13;;;;;;;9.15;7.07;;;19.00;89.90;;;;;;5049613;28;20029;-69
2022/06/26 01:57:38;;;;;;;9.52;7.28;;;19.10;90.10;;;;;;5051200;28;20056;-69
2022/06/26 02:00:05;;;;;;;12.65;7.32;;;19.10;90.30;;;;;;5038238;28;20088;-69
2022/06/26 02:02:31;;;;;;;10.75;7.57;;;19.00;90.20;;;;;;5050974;28;20540;-69
2022/06/26 02:04:56;;;;;;;10.65;7.45;;;19.10;90.30;;;;;;5050915;28;20032;-69
2022/06/26 02:07:22;;;;;;;10.82;7.88;;;19.00;90.20;;;;;;5051353;28;20037;-69
2022/06/26 02:15:15;;;;;;;8.32;7.28;;;19.10;90.00;;;;;;5046560;28;20028;-69
2022/06/26 02:17:41;;;;;;;11.80;7.57;;;19.10;90.00;;;;;;5050815;28;20108;-69
2022/06/26 02:20:08;;;;;;;11.45;7.35;;;19.10;89.90;;;;;;5050049;28;20041;-69
2022/06/26 02:22:34;;;;;;;9.15;7.82;;;19.10;89.90;;;;;;5050194;28;20070;-69
2022/06/26 02:25:00;;;;;;;9.40;7.72;;;19.10;89.90;;;;;;5048296;28;20025;-69
2022/06/26 02:27:26;;;;;;;9.05;7.32;;;19.00;89.70;;;;;;5050279;28;20125;-69
2022/06/26 02:29:52;;;;;;;9.50;7.38;;;19.00;89.90;;;;;;5049199;28;20028;-69
2022/06/26 02:32:17;;;;;;;10.18;7.82;;;19.00;90.00;;;;;;5050846;28;20044;-69
2022/06/26 02:34:43;;;;;;;8.82;7.72;;;18.90;89.90;;;;;;5050224;28;20440;-69
2022/06/26 02:37:08;;;;;;;11.20;7.53;;;18.90;90.10;;;;;;5051191;28;20119;-69
2022/06/26 02:39:34;;;;;;;12.43;7.88;;;18.80;90.20;;;;;;5049390;28;20400;-69
2022/06/26 02:41:59;;;;;;;10.10;8.30;;;18.80;90.40;;;;;;5049044;28;20064;-69
2022/06/26 02:44:24;;;;;;;9.57;7.75;;;18.80;90.40;;;;;;5049354;28;20028;-69
2022/06/26 02:46:50;;;;;;;9.90;7.78;;;18.70;90.50;;;;;;5051863;28;20043;-69
2022/06/26 02:49:16;;;;;;;9.88;7.95;;;18.70;90.70;;;;;;5058523;28;20112;-69
2022/06/26 02:51:41;;;;;;;11.20;7.85;;;18.70;90.50;;;;;;5049890;28;20048;-69
2022/06/26 02:54:08;;;;;;;11.85;7.53;;;18.70;90.60;;;;;;5050132;28;20383;-69
2022/06/26 02:56:34;;;;;;;9.35;7.70;;;18.70;90.70;;;;;;5048705;28;20029;-69
2022/06/26 02:59:00;;;;;;;10.70;8.10;;;18.70;90.60;;;;;;5048766;28;20486;-69
2022/06/26 03:01:25;;;;;;;9.13;7.65;;;18.70;90.60;;;;;;5050402;28;20139;-69
2022/06/26 03:03:51;;;;;;;9.40;7.53;;;18.70;90.40;;;;;;5050771;28;20419;-69
2022/06/26 03:06:16;;;;;;;8.68;7.32;;;18.70;90.40;;;;;;5045996;28;20535;-69
2022/06/26 03:08:42;;;;;;;9.23;7.43;;;18.60;90.30;;;;;;5043748;28;20044;-69
2022/06/26 03:11:07;;;;;;;9.27;7.70;;;18.70;90.30;;;;;;5048593;28;20063;-69
2022/06/26 03:13:33;;;;;;;10.25;7.68;;;18.70;90.10;;;;;;5047861;28;20478;-69
2022/06/26 03:15:58;;;;;;;12.10;7.88;;;18.70;90.00;;;;;;5049555;28;20029;-69
2022/06/26 03:18:24;;;;;;;11.30;7.28;;;18.70;90.00;;;;;;5050027;28;20056;-69
2022/06/26 03:20:49;;;;;;;8.43;7.38;;;18.70;89.80;;;;;;5048257;28;20440;-69
2022/06/26 03:23:15;;;;;;;10.45;7.78;;;18.70;89.70;;;;;;5050368;28;20036;-69
2022/06/26 03:25:40;;;;;;;8.90;7.63;;;18.70;89.70;;;;;;5048920;28;20112;-69
2022/06/26 03:28:06;;;;;;;9.23;7.20;;;18.80;89.60;;;;;;5048153;28;20029;-69
2022/06/26 03:30:32;;;;;;;9.07;7.70;;;18.90;89.40;;;;;;5050431;28;20056;-69
2022/06/26 03:32:57;;;;;;;9.32;7.25;;;18.80;89.20;;;;;;5049793;28;20051;-69
2022/06/26 03:35:23;;;;;;;9.25;6.97;;;18.90;89.00;;;;;;5049971;28;20103;-69
2022/06/26 03:37:48;;;;;;;9.45;7.00;;;19.00;88.70;;;;;;5050593;28;20148;-69
2022/06/26 03:40:14;;;;;;;8.90;6.80;;;19.00;88.30;;;;;;5046839;28;20372;-69
2022/06/26 03:42:39;;;;;;;9.52;6.70;;;19.00;88.10;;;;;;5046300;28;20241;-69
2022/06/26 03:45:06;;;;;;;8.50;6.15;;;19.00;87.90;;;;;;5052894;28;20032;-69
2022/06/26 03:47:32;;;;;;;9.93;6.78;;;19.10;87.90;;;;;;5054333;28;20185;-69
2022/06/26 03:49:57;;;;;;;9.27;6.18;;;19.10;87.60;;;;;;5053829;28;20170;-69
2022/06/26 03:52:24;;;;;;;8.40;6.32;;;19.20;87.40;;;;;;5050467;28;20429;-69
2022/06/26 03:54:50;;;;;;;7.53;5.90;;;19.20;87.20;;;;;;5053216;28;20028;-69
2022/06/26 03:57:16;;;;;;;7.80;6.40;;;19.20;87.00;;;;;;5052922;28;20113;-69
2022/06/26 03:59:42;;;;;;;9.65;6.05;;;19.30;87.00;;;;;;5051966;28;20169;-69
2022/06/26 04:02:09;;;;;;;6.93;5.97;;;19.30;86.80;;;;;;5054363;28;20033;-69
2022/06/26 04:04:34;;;;;;;8.35;6.38;;;19.30;86.70;;;;;;5052322;28;20099;-69
2022/06/26 04:07:00;;;;;;;9.63;6.13;;;19.40;86.70;;;;;;5053491;28;20140;-69
2022/06/26 04:09:25;;;;;;;7.38;6.03;;;19.40;86.40;;;;;;5053713;28;20052;-69
2022/06/26 04:11:51;;;;;;;7.30;5.72;;;19.40;86.40;;;;;;5051061;28;20035;-70
2022/06/26 04:14:16;;;;;;;7.38;5.45;;;19.50;86.30;;;;;;5062665;28;20021;-69
2022/06/26 04:16:42;;;;;;;7.00;5.63;;;19.50;86.10;;;;;;5051661;28;20021;-69
2022/06/26 04:19:07;;;;;;;9.02;5.68;;;19.50;85.90;;;;;;5053653;28;20098;-69
2022/06/26 04:21:33;;;;;;;7.18;5.78;;;19.40;85.80;;;;;;5051316;28;20387;-69
2022/06/26 04:23:58;;;;;;;7.43;5.82;;;19.40;85.90;;;;;;5052202;28;20043;-69
2022/06/26 04:26:24;;;;;;;8.05;5.40;;;19.40;85.80;;;;;;5051454;28;20029;-68
2022/06/26 04:28:49;;;;;;;6.68;5.32;;;19.40;85.80;;;;;;5051800;28;20048;-69
2022/06/26 04:31:15;;;;;;;9.52;6.20;;;19.30;85.80;;;;;;5053262;28;20058;-69
2022/06/26 04:33:40;;;;;;;7.40;5.88;;;19.40;85.70;;;;;;5051623;28;20064;-69
2022/06/26 04:36:06;;;;;;;7.10;5.72;;;19.30;85.90;;;;;;5053201;28;20029;-69
2022/06/26 04:38:31;;;;;;;6.85;5.47;;;19.30;86.00;;;;;;5052940;28;20033;-69
2022/06/26 04:40:57;;;;;;;7.10;6.07;;;19.40;85.80;;;;;;5051316;28;20039;-69
2022/06/26 04:43:22;;;;;;;11.07;5.72;;;19.30;85.90;;;;;;5051226;28;20036;-69
2022/06/26 04:45:48;;;;;;;7.20;5.47;;;19.30;85.90;;;;;;5053008;28;20087;-69
2022/06/26 04:48:13;;;;;;;7.97;5.90;;;19.40;85.90;;;;;;5053080;28;20103;-69
2022/06/26 04:50:39;;;;;;;8.10;5.93;;;19.50;85.60;;;;;;5052445;28;20387;-69
2022/06/26 04:53:05;;;;;;;6.75;5.70;;;19.50;85.40;;;;;;5051679;28;20443;-69
2022/06/26 04:55:30;;;;;;;7.07;5.45;;;19.60;85.20;;;;;;5050795;28;20039;-69
2022/06/26 04:57:56;;;;;;;8.13;5.00;;;19.70;85.20;;;;;;5051351;28;20124;-69
2022/06/26 05:00:21;;;;;;;8.38;5.45;;;19.80;84.60;;;;;;5051824;28;20048;-69
2022/06/26 05:02:47;;;;;;;6.65;5.00;;;19.80;84.50;;;;;;5053248;28;20073;-69
2022/06/26 05:05:12;;;;;;;7.13;5.15;;;19.90;83.80;;;;;;5052099;28;20057;-69
2022/06/26 05:07:38;;;;;;;6.50;4.85;;;20.00;83.90;;;;;;5052390;28;20041;-69
2022/06/26 05:10:04;;;;;;;8.13;5.03;;;20.10;83.00;;;;;;5045960;28;20796;-69
2022/06/26 05:12:29;;;;;;;7.30;4.63;;;20.20;82.50;;;;;;5050132;28;20036;-69
2022/06/26 05:14:55;;;;;;;9.10;4.65;;;20.30;82.50;;;;;;5050633;28;20082;-69
2022/06/26 05:17:20;;;;;;;5.90;4.30;;;20.50;81.80;;;;;;5048486;28;20475;-69
2022/06/26 05:19:46;;;;;;;7.70;4.15;;;20.60;81.60;;;;;;5047036;28;20053;-69
2022/06/26 05:22:11;;;;;;;7.40;3.95;;;20.60;81.20;;;;;;5051490;28;20033;-69
2022/06/26 05:24:37;;;;;;;7.32;4.30;;;20.80;80.00;;;;;;5051900;28;20041;-69
2022/06/26 05:27:03;;;;;;;4.55;3.50;;;21.00;79.10;;;;;;5048966;28;20056;-68
2022/06/26 05:29:29;;;;;;;5.90;3.47;;;21.10;78.80;;;;;;5043131;28;20036;-67
2022/06/26 05:31:54;;;;;;;5.22;3.33;;;21.30;77.90;;;;;;5052294;28;20029;-66
2022/06/26 05:34:20;;;;;;;3.70;2.88;;;21.60;76.20;;;;;;5052500;28;20031;-67
2022/06/26 05:36:46;;;;;;;5.93;3.42;;;21.90;74.90;;;;;;5052137;28;20063;-67
2022/06/26 05:39:12;;;;;;;4.82;2.90;;;22.00;74.40;;;;;;5051653;28;20356;-67
2022/06/26 05:41:37;;;;;;;6.40;3.40;;;22.20;73.10;;;;;;5049805;28;20120;-67
2022/06/26 05:44:03;;;;;;;5.28;3.08;;;22.40;72.20;;;;;;5050958;28;20120;-67
2022/06/26 05:46:29;;;;;;;4.70;2.85;;;22.60;71.90;;;;;;5047391;28;20035;-67
2022/06/26 05:48:55;;;;;;;3.63;2.72;;;22.70;72.00;;;;;;5051277;28;20029;-67
2022/06/26 05:51:20;;;;;;;5.63;2.55;;;22.80;72.30;;;;;;5050092;28;20036;-67
2022/06/26 05:53:46;;;;;;;4.90;2.97;;;22.80;71.10;;;;;;5042376;28;20021;-67
2022/06/26 05:56:11;;;;;;;3.40;2.67;;;22.90;70.70;;;;;;5049512;28;20028;-67
2022/06/26 05:58:37;;;;;;;5.97;2.70;;;23.00;71.90;;;;;;5049011;28;20124;-69
2022/06/26 06:01:03;;;;;;;3.88;2.53;;;23.10;71.00;;;;;;5051414;28;20054;-67
2022/06/26 06:03:28;;;;;;;4.20;2.70;;;23.20;70.00;;;;;;5051154;28;20104;-67
2022/06/26 06:05:54;;;;;;;4.43;2.78;;;23.20;70.00;;;;;;5050645;28;20029;-67
2022/06/26 06:08:19;;;;;;;5.63;3.05;;;23.20;69.90;;;;;;5047629;28;20036;-67
2022/06/26 06:10:45;;;;;;;3.63;2.80;;;23.20;69.00;;;;;;5041807;28;20388;-67
2022/06/26 06:13:10;;;;;;;4.65;2.33;;;23.20;70.40;;;;;;5049388;28;20029;-67
2022/06/26 06:15:36;;;;;;;3.55;2.25;;;23.10;69.90;;;;;;5050907;28;20107;-67
2022/06/26 06:18:02;;;;;;;4.90;2.50;;;23.10;70.60;;;;;;5050812;28;20123;-67
2022/06/26 06:20:27;;;;;;;4.68;2.60;;;23.00;70.50;;;;;;5051059;28;20464;-67
2022/06/26 06:23:00;;;;;;;5.60;2.45;;;23.00;70.80;;;;;;5049304;28;20032;-67
2022/06/26 06:25:26;;;;;;;3.55;2.55;;;23.00;71.30;;;;;;5049406;28;20376;-67
2022/06/26 06:27:52;;;;;;;3.22;2.45;;;23.00;71.60;;;;;;5050504;28;20417;-67
2022/06/26 06:30:18;;;;;;;3.83;2.78;;;23.00;72.20;;;;;;5049308;28;20454;-67
2022/06/26 06:32:45;;;;;;;6.63;2.95;;;23.10;71.70;;;;;;5051211;28;20029;-67
2022/06/26 06:35:13;;;;;;;4.43;3.05;;;23.10;71.40;;;;;;5050634;28;20333;-67
2022/06/26 06:37:40;;;;;;;4.78;2.70;;;23.20;72.40;;;;;;5051167;28;20040;-67
2022/06/26 06:40:07;;;;;;;3.95;2.83;;;23.30;71.00;;;;;;5049017;28;20108;-67
2022/06/26 06:42:32;;;;;;;4.43;2.75;;;23.60;71.90;;;;;;5050301;28;20033;-67
2022/06/26 06:44:58;;;;;;;3.60;2.80;;;23.80;69.70;;;;;;5049562;28;20044;-67
2022/06/26 06:47:23;;;;;;;4.80;2.90;;;24.00;67.80;;;;;;5050761;28;20036;-67
2022/06/26 06:49:49;;;;;;;4.32;2.50;;;24.20;67.70;;;;;;5049984;28;20123;-67
2022/06/26 06:52:14;;;;;;;3.85;2.30;;;24.30;66.70;;;;;;5049258;28;20025;-67
2022/06/26 06:54:40;;;;;;;4.47;2.42;;;24.50;65.40;;;;;;5050175;28;20037;-67
2022/06/26 06:57:05;;;;;;;2.50;2.10;;;24.70;65.70;;;;;;5048755;28;20040;-67
2022/06/26 06:59:31;;;;;;;4.80;2.30;;;24.80;62.20;;;;;;5049035;28;20033;-67
2022/06/26 07:01:57;;;;;;;4.35;2.15;;;25.00;62.60;;;;;;5049811;28;20056;-67
2022/06/26 07:04:22;;;;;;;2.78;2.00;;;25.10;62.10;;;;;;5048999;28;20073;-67
2022/06/26 07:06:48;;;;;;;3.22;2.05;;;25.30;62.30;;;;;;5049863;28;20377;-67
2022/06/26 07:09:14;;;;;;;3.45;2.08;;;25.20;58.70;;;;;;5041193;28;20104;-67
2022/06/26 07:11:39;;;;;;;3.35;2.13;;;25.40;59.50;;;;;;5048563;28;20363;-67
2022/06/26 07:14:05;;;;;;;4.63;2.28;;;25.50;58.70;;;;;;5048788;28;20029;-67
2022/06/26 07:16:31;;;;;;;5.05;2.30;;;25.70;58.60;;;;;;5049544;28;20111;-67
2022/06/26 07:18:56;;;;;;;3.28;1.95;;;25.70;57.80;;;;;;5050070;28;20140;-67
2022/06/26 07:21:22;;;;;;;5.03;2.00;;;25.70;58.10;;;;;;5049512;28;20087;-67
2022/06/26 07:23:48;;;;;;;3.28;2.20;;;25.80;58.50;;;;;;5048172;28;20029;-67
2022/06/26 07:26:14;;;;;;;2.63;1.95;;;25.90;57.90;;;;;;5048160;28;20039;-67
2022/06/26 07:28:40;;;;;;;4.38;2.10;;;25.70;57.30;;;;;;5048850;28;20037;-67
2022/06/26 07:31:05;;;;;;;3.20;1.80;;;25.90;57.40;;;;;;5050011;28;20487;-67
2022/06/26 07:36:15;;;;;;;3.25;1.70;;;26.20;56.90;;;;;;5050050;28;20036;-67
2022/06/26 07:38:40;;;;;;;3.40;2.08;;;26.70;57.80;;;;;;5050013;28;20029;-67
2022/06/26 07:41:06;;;;;;;2.75;1.90;;;26.40;56.50;;;;;;5048219;28;20033;-67
2022/06/26 07:43:32;;;;;;;2.65;1.95;;;26.50;58.50;;;;;;5048295;28;20121;-67
2022/06/26 07:45:58;;;;;;;3.85;2.08;;;26.50;56.40;;;;;;5049880;28;20036;-67
2022/06/26 07:48:23;;;;;;;3.17;2.00;;;26.50;57.30;;;;;;5049642;28;20044;-67
2022/06/26 07:50:49;;;;;;;3.53;2.17;;;26.30;56.40;;;;;;5049507;28;20436;-67
2022/06/26 07:53:14;;;;;;;3.55;2.17;;;26.50;57.40;;;;;;5051908;28;20090;-67
2022/06/26 07:55:40;;;;;;;4.93;2.40;;;26.20;57.30;;;;;;5048520;28;20025;-67
2022/06/26 07:58:06;;;;;;;3.22;2.03;;;26.50;57.50;;;;;;5047819;28;20035;-67
2022/06/26 08:00:31;;;;;;;7.05;1.92;;;26.70;56.30;;;;;;5040879;28;20037;-67
2022/06/26 08:03:11;;;;;;;4.72;2.40;;;26.70;56.30;;;;;;5049863;28;20572;-67
2022/06/26 08:05:37;;;;;;;3.13;1.85;;;26.50;56.40;;;;;;5049628;28;20379;-67
2022/06/26 08:08:04;;;;;;;2.85;1.80;;;26.10;55.50;;;;;;5040048;28;20037;-67
2022/06/26 08:10:30;;;;;;;6.45;2.42;;;26.10;56.10;;;;;;5050434;28;20055;-67
2022/06/26 08:12:56;;;;;;;3.08;2.00;;;26.30;56.30;;;;;;5048916;28;20029;-67
2022/06/26 08:15:22;;;;;;;5.28;2.08;;;26.20;56.40;;;;;;5048706;28;20033;-67
2022/06/26 08:17:48;;;;;;;4.03;1.80;;;26.40;55.90;;;;;;5049699;28;20037;-67
2022/06/26 08:20:14;;;;;;;3.33;1.98;;;26.50;55.70;;;;;;5049342;28;20032;-67
2022/06/26 08:22:40;;;;;;;11.95;2.60;;;26.40;57.00;;;;;;5048190;28;20029;-67
2022/06/26 08:25:05;;;;;;;3.25;1.90;;;26.10;56.90;;;;;;5047652;28;20033;-67
2022/06/26 08:27:31;;;;;;;2.67;2.03;;;26.40;57.10;;;;;;5046832;28;20432;-67
2022/06/26 08:29:56;;;;;;;10.15;2.60;;;26.40;58.10;;;;;;5042562;28;20586;-67
2022/06/26 08:32:22;;;;;;;3.05;1.88;;;26.50;57.40;;;;;;5053705;28;20386;-67
2022/06/26 08:34:47;;;;;;;3.95;2.17;;;26.40;58.20;;;;;;5053267;28;20084;-67
2022/06/26 08:37:13;;;;;;;3.60;2.00;;;26.20;58.10;;;;;;5052972;28;20076;-67
2022/06/26 08:39:38;;;;;;;4.20;2.30;;;26.10;59.30;;;;;;5052720;28;20117;-67
2022/06/26 08:42:04;;;;;;;3.78;2.45;;;26.10;58.50;;;;;;5051586;28;20436;-67
2022/06/26 08:44:32;;;;;;;3.08;2.10;;;26.00;57.60;;;;;;5051999;28;20111;-67
2022/06/26 08:46:58;;;;;;;3.67;2.15;;;26.00;57.60;;;;;;5053021;28;20033;-67
2022/06/26 08:49:24;;;;;;;3.20;2.10;;;25.80;57.50;;;;;;5052595;28;20468;-67
2022/06/26 08:51:52;;;;;;;5.55;2.53;;;26.00;57.30;;;;;;5052713;28;20043;-67
2022/06/26 08:54:19;;;;;;;4.28;1.90;;;26.20;58.00;;;;;;5051987;28;20079;-68
2022/06/26 08:56:46;;;;;;;5.07;2.10;;;26.20;57.60;;;;;;5051594;28;20119;-68
2022/06/26 08:59:17;;;;;;;4.63;2.40;;;26.20;57.60;;;;;;5051422;28;20047;-68
2022/06/26 09:01:43;;;;;;;;;;;26.40;57.10;;;;;;5054135;28;20025;-68
2022/06/26 09:04:10;;;;;;;6.60;2.40;;;26.40;58.10;;;;;;5051918;28;20290;-68
2022/06/26 09:06:37;;;;;;;3.53;1.95;;;26.60;57.60;;;;;;5040287;28;20029;-68
2022/06/26 09:09:24;;;;;;;3.35;2.20;;;26.60;56.80;;;;;;5052322;28;20368;-68
2022/06/26 09:11:59;;;;;;;4.60;2.55;;;26.70;56.60;;;;;;5050314;28;20082;-68
2022/06/26 09:14:26;;;;;;;3.20;2.10;;;26.90;56.40;;;;;;5040461;28;20049;-68
2022/06/26 09:16:52;;;;;;;2.70;2.10;;;26.90;56.50;;;;;;5052466;28;20406;-68
2022/06/26 09:19:20;;;;;;;4.57;2.10;;;27.20;56.20;;;;;;5052476;28;20843;-68
2022/06/26 09:21:49;;;;;;;4.30;2.70;;;27.00;55.70;;;;;;5052093;28;20468;-68
2022/06/26 09:24:18;;;;;;;3.92;2.38;;;27.00;55.50;;;;;;5050895;28;20033;-68
2022/06/26 09:26:45;;;;;;;4.00;2.03;;;27.30;55.30;;;;;;5050401;28;20032;-68
2022/06/26 09:29:15;;;;;;;3.75;2.63;;;27.40;55.40;;;;;;5046619;28;20145;-68
2022/06/26 09:31:42;;;;;;;5.95;2.40;;;27.20;54.50;;;;;;5049435;28;20447;-68
2022/06/26 09:34:22;;;;;;;4.13;2.50;;;27.20;55.20;;;;;;5051871;28;20036;-68
2022/06/26 09:36:58;;;;;;;4.72;2.55;;;27.40;54.30;;;;;;5051958;28;20112;-68
2022/06/26 09:39:24;;;;;;;4.90;2.33;;;27.00;55.20;;;;;;5051871;28;20037;-68
2022/06/26 09:41:49;;;;;;;3.83;2.50;;;27.10;54.20;;;;;;5049069;28;20025;-68
2022/06/26 09:44:19;;;;;;;5.00;2.80;;;26.90;54.90;;;;;;5050498;28;20095;-68
2022/06/26 09:46:46;;;;;;;4.15;2.60;;;26.70;55.90;;;;;;5051986;28;20036;-68
2022/06/26 09:49:11;;;;;;;5.32;2.88;;;26.50;56.20;;;;;;5049200;28;20686;-68
2022/06/26 09:51:37;;;;;;;6.68;3.63;;;26.60;57.70;;;;;;5052168;28;20060;-68
2022/06/26 09:54:04;;;;;;;4.50;2.70;;;26.70;56.10;;;;;;5050616;28;20036;-68
2022/06/26 09:56:31;;;;;;;6.65;3.20;;;27.10;57.80;;;;;;5048695;28;20048;-68
2022/06/26 09:58:59;;;;;;;5.47;3.30;;;27.50;55.40;;;;;;5050218;28;20120;-68
2022/06/26 10:06:56;;;;;;;6.25;3.17;;;28.50;54.10;;;;;;5046590;28;20040;-68
2022/06/26 10:09:22;;;;;;;4.93;3.08;;;28.60;52.80;;;;;;5051822;28;20079;-68
2022/06/26 10:11:48;;;;;;;5.03;2.97;;;28.40;52.20;;;;;;5049627;28;20452;-68
2022/06/26 10:14:36;;;;;;;4.68;3.30;;;28.10;52.90;;;;;;5049780;28;20393;-68
2022/06/26 10:17:32;;;;;;;4.65;2.85;;;27.30;55.20;;;;;;5051172;28;20033;-68
2022/06/26 10:20:06;;;;;;;6.55;3.60;;;27.50;55.00;;;;;;5050468;28;20084;-68
2022/06/26 10:22:39;;;;;;;6.40;2.67;;;27.70;55.30;;;;;;5051151;28;20029;-68
2022/06/26 10:25:05;;;;;;;4.00;2.78;;;27.80;53.90;;;;;;5048771;28;20133;-68
2022/06/26 10:27:37;;;;;;;4.47;2.65;;;27.70;54.50;;;;;;5050560;28;20084;-68
2022/06/26 10:30:10;;;;;;;5.57;2.70;;;27.90;53.70;;;;;;5049549;28;20021;-68
2022/06/26 10:32:36;;;;;;;5.35;2.63;;;27.50;55.20;;;;;;5051382;28;20361;-68
2022/06/26 10:35:04;;;;;;;5.32;3.08;;;27.50;55.80;;;;;;5050657;28;20036;-68
2022/06/26 10:37:48;;;;;;;4.60;2.72;;;27.50;55.50;;;;;;5051101;28;20035;-68
2022/06/26 10:43:06;;;;;;;5.00;2.90;;;27.90;55.50;;;;;;5037031;28;20087;-68
2022/06/26 10:45:36;;;;;;;5.13;2.95;;;27.90;55.60;;;;;;5051078;28;20033;-68
2022/06/26 10:48:10;;;;;;;6.13;3.00;;;28.30;54.80;;;;;;5050594;28;20333;-68
2022/06/26 10:50:39;;;;;;;4.15;3.20;;;28.50;54.50;;;;;;5050531;28;20111;-68
2022/06/26 10:53:14;;;;;;;4.05;2.88;;;27.30;54.70;;;;;;5050010;28;20036;-68
2022/06/26 10:55:46;;;;;;;5.10;3.40;;;28.00;54.80;;;;;;5048557;28;20033;-68
2022/06/26 10:58:22;;;;;;;6.57;3.50;;;28.00;54.80;;;;;;5047178;28;20047;-68
2022/06/26 11:00:49;;;;;;;4.90;3.35;;;27.90;54.90;;;;;;5042882;28;20188;-68
2022/06/26 11:03:16;;;;;;;5.50;3.80;;;27.40;56.30;;;;;;5040789;28;20046;-68
2022/06/26 11:06:00;;;;;;;6.95;4.20;;;27.10;57.10;;;;;;5046283;28;20033;-68
2022/06/26 11:08:37;;;;;;;6.53;3.47;;;26.80;57.30;;;;;;5049955;28;20037;-68
2022/06/26 11:11:09;;;;;;;7.18;4.20;;;26.70;56.40;;;;;;5048760;28;20112;-68
2022/06/26 11:13:47;;;;;;;5.57;4.55;;;26.60;58.00;;;;;;5041584;28;20030;-68
2022/06/26 11:16:12;;;;;;;5.50;3.90;;;26.80;57.10;;;;;;5042141;28;20481;-68
2022/06/26 11:18:38;;;;;;;7.13;4.07;;;27.10;57.70;;;;;;5059414;28;21146;-68
2022/06/26 11:21:04;;;;;;;5.43;4.10;;;27.00;57.70;;;;;;5049841;28;20207;-68
2022/06/26 11:23:33;;;;;;;5.07;3.90;;;27.00;57.50;;;;;;5049763;28;20436;-68
2022/06/26 11:26:00;;;;;;;6.85;4.47;;;27.10;57.30;;;;;;5048469;28;20116;-68
2022/06/26 11:28:31;;;;;;;6.97;4.80;;;27.30;57.10;;;;;;5046262;28;20033;-68
2022/06/26 11:30:57;;;;;;;6.25;4.75;;;27.30;57.30;;;;;;5049822;28;20036;-68
2022/06/26 11:33:25;;;;;;;10.50;4.60;;;27.10;56.70;;;;;;5050126;28;20359;-68
2022/06/26 11:35:51;;;;;;;7.45;4.30;;;27.00;57.60;;;;;;5058036;28;20380;-68
2022/06/26 11:38:18;;;;;;;7.25;4.75;;;27.10;57.80;;;;;;5050098;28;20606;-68
2022/06/26 11:40:45;;;;;;;8.75;4.97;;;27.00;56.20;;;;;;5048555;28;20063;-68
2022/06/26 11:43:12;;;;;;;7.30;4.43;;;26.80;56.60;;;;;;5048016;28;20302;-68
2022/06/26 11:45:40;;;;;;;5.93;4.55;;;26.90;57.60;;;;;;5049985;28;20029;-68
2022/06/26 11:48:16;;;;;;;6.90;4.18;;;26.80;58.20;;;;;;5049725;28;20033;-68
2022/06/26 11:50:44;;;;;;;6.32;4.70;;;26.50;58.10;;;;;;5048278;28;20091;-68
2022/06/26 11:53:16;;;;;;;5.72;4.63;;;26.40;58.40;;;;;;5049936;28;20040;-68
2022/06/26 11:55:50;;;;;;;6.75;4.60;;;26.00;59.00;;;;;;5048591;28;20127;-68
2022/06/26 11:58:16;;;;;;;6.72;4.90;;;26.00;59.50;;;;;;5048296;28;20040;-68
2022/06/26 12:00:43;;;;;;;6.90;4.57;;;25.80;60.20;;;;;;5048039;28;20037;-68
2022/06/26 12:03:12;;;;;;;6.97;4.40;;;25.80;59.80;;;;;;5035799;28;20387;-67
2022/06/26 12:05:40;;;;;;;6.80;4.47;;;25.60;60.70;;;;;;5053420;28;20045;-68
2022/06/26 12:08:15;;;;;;;6.68;4.97;;;25.50;61.40;;;;;;5053705;28;20064;-68
2022/06/26 12:10:40;;;;;;;8.20;4.85;;;25.50;61.20;;;;;;5052021;28;20044;-67
2022/06/26 12:13:06;;;;;;;7.05;4.50;;;25.40;61.00;;;;;;5051825;28;20037;-68
2022/06/26 12:15:36;;;;;;;5.85;4.80;;;25.40;61.40;;;;;;5051923;28;20025;-67
2022/06/26 12:18:04;;;;;;;7.47;4.80;;;25.30;62.20;;;;;;5053725;28;20045;-68
2022/06/26 12:20:39;;;;;;;6.22;4.63;;;25.40;62.20;;;;;;5044897;28;20384;-68
2022/06/26 12:23:06;;;;;;;5.65;4.32;;;25.30;61.90;;;;;;5052236;28;20037;-67
2022/06/26 12:25:33;;;;;;;4.45;3.08;;;25.30;61.50;;;;;;5052200;28;20021;-68
2022/06/26 12:28:00;;;;;;;3.95;3.17;;;25.40;61.60;;;;;;5051939;28;20033;-68
2022/06/26 12:30:39;;;;;;;5.13;3.17;;;25.40;61.60;;;;;;5052569;28;20029;-67
2022/06/26 12:33:06;;;;;;;4.07;2.63;;;25.40;61.50;;;;;;5052956;28;20476;-68
2022/06/26 12:35:33;;;;;;;3.88;2.55;;;25.50;61.20;;;;;;5052799;28;20021;-68
2022/06/26 12:37:59;;;;;;;5.97;2.50;;;25.70;60.50;;;;;;5053562;28;20414;-68
2022/06/26 12:40:26;;;;;;;5.40;2.40;;;25.90;59.70;;;;;;5050308;28;20083;-68
2022/06/26 12:42:51;;;;;;;4.28;2.50;;;26.40;58.70;;;;;;5052860;28;20033;-68
2022/06/26 12:45:17;;;;;;;3.42;2.35;;;26.60;57.70;;;;;;5051600;28;20448;-68
2022/06/26 12:47:42;;;;;;;5.45;2.20;;;26.70;57.50;;;;;;5048832;28;20049;-68
2022/06/26 12:50:09;;;;;;;3.67;2.33;;;26.90;57.80;;;;;;5046024;28;20147;-68
2022/06/26 12:52:35;;;;;;;3.88;2.20;;;26.90;56.90;;;;;;5052155;28;20052;-68
2022/06/26 12:55:01;;;;;;;3.50;1.90;;;27.20;56.40;;;;;;5051310;28;20072;-68
2022/06/26 12:57:27;;;;;;;5.32;1.92;;;27.30;55.30;;;;;;5052628;28;20033;-68
2022/06/26 12:59:52;;;;;;;6.22;2.10;;;28.00;54.00;;;;;;5047559;28;20048;-68